ウィーン国際空港の過去48時間の天気

ウィーン国際空港 (Wien / Schwechat-Flughafen)

現在時刻: 9/28 11:59 CEST (9/28 09:59 UTC) 以下の時間は現地時間です。

過去48時間のMETAR気象情報
時間 風向 風速(m/s) 視程 気温(℃) 湿度(%) 気圧(hPa) 天気現象
28 11:20 3 10km以上 10 94 1008
28 10:50 3 10km以上 10 94 1008
28 10:20 3 10km以上 10 94 1008
28 09:50 4 10km以上 9 100 1007
28 09:20 3 8000m 9 93 1007 弱いしゅう雨
28 08:50 4 10km以上 9 93 1007 しゅう雨
28 08:20 4 10km以上 9 93 1007 しゅう雨
28 07:50 北北西 3 6000m 9 93 1007 しゅう雨
28 07:20 北北東 4 8000m 9 93 1007 しゅう雨
28 06:50 北北東 4 10km以上 9 93 1007 弱いしゅう雨
28 06:20 6 10km以上 9 93 1007
28 05:50 北東 5 9000m 9 93 1008
28 05:20 北東 5 10km以上 9 93 1008
28 04:50 東北東 3 8000m 9 93 1009
28 04:20 東北東 2 10km以上 9 93 1009
28 03:50 北東 3 10km以上 10 87 1009 弱い雨
28 03:20 北東 3 10km以上 10 87 1009 弱い雨
28 02:50 北東 4 10km以上 10 82 1009 弱い雨
28 02:20 北東 3 10km以上 10 87 1010
28 01:50 北東 3 10km以上 10 87 1010
28 01:20 北東 2 10km以上 10 87 1010
28 00:50 2 10km以上 10 82 1010
28 00:20 東北東 3 10km以上 10 82 1010
27 23:50 2 10km以上 10 82 1011
27 23:20 東南東 2 10km以上 10 82 1011
27 22:50 3 10km以上 10 82 1010
27 22:20 南南東 4 10km以上 9 76 1011
27 21:50 南南東 3 10km以上 11 71 1011
27 21:20 南東 2 10km以上 11 71 1011
27 20:50 4 10km以上 12 71 1011
27 20:20 南南東 5 10km以上 12 71 1010
27 19:50 南南東 7 10km以上 13 67 1010
27 19:20 南南東 6 10km以上 12 67 1010
27 18:50 南東 4 10km以上 13 62 1009
27 18:20 南南東 5 10km以上 14 59 1009
27 17:50 南南東 6 10km以上 16 55 1008
27 17:20 南南東 8 10km以上 16 51 1008
27 16:50 南東 7 10km以上 17 52 1008
27 16:20 南東 6 10km以上 17 52 1008
27 15:50 南東 4 10km以上 17 52 1008
27 15:20 東南東 4 10km以上 17 48 1008
27 14:50 南東 4 10km以上 17 48 1008
27 14:20 東南東 4 10km以上 16 51 1008
27 13:50 南東 4 10km以上 16 48 1008
27 13:20 南東 5 10km以上 16 48 1008
27 12:50 3 10km以上 15 45 1008
27 12:20 南南西 3 10km以上 15 48 1008
27 11:50 3 10km以上 14 55 1008
27 11:20 3 10km以上 14 55 1008
27 10:50 南南西 3 10km以上 13 51 1007
27 10:20 西 4 10km以上 13 54 1007
27 09:50 西 3 10km以上 12 58 1007
27 09:20 西 4 10km以上 11 62 1006
27 08:50 西 3 10km以上 11 62 1006
27 08:20 西南西 3 10km以上 9 71 1006
27 07:50 2 10km以上 6 87 1005
27 07:20 2 10km以上 5 87 1005
27 06:50 西南西 2 10km以上 7 76 1005
27 06:20 南南西 2 10km以上 6 81 1004
27 05:50 不定 1 10km以上 7 76 1004
27 05:20 西 2 10km以上 8 76 1004
27 04:50 西 2 10km以上 9 71 1004
27 04:20 西 4 10km以上 9 71 1004
27 03:50 西北西 6 10km以上 9 71 1003
27 03:20 西 5 10km以上 9 66 1003
27 02:50 西 6 10km以上 9 66 1003
27 02:20 西 5 10km以上 9 66 1003
27 01:50 西 5 10km以上 9 66 1003
27 01:20 西 5 10km以上 9 66 1002
27 00:50 西 6 10km以上 9 66 1002
27 00:20 西 5 10km以上 9 66 1002
26 23:50 西 6 10km以上 9 66 1002
26 23:20 西北西 7 10km以上 9 66 1002
26 22:50 西北西 9 10km以上 9 66 1001
26 22:20 西 8 10km以上 9 66 1001
26 21:50 西北西 9 10km以上 9 66 1000
26 21:20 西北西 9 10km以上 10 62 1001
26 20:50 西 7 10km以上 10 62 1001
26 20:20 西北西 7 10km以上 10 66 1001
26 19:50 西北西 7 10km以上 10 66 1001
26 19:20 西北西 7 10km以上 10 66 1001
26 18:50 西 7 10km以上 11 62 1000
26 18:20 西 9 10km以上 11 62 1000
26 17:50 西 10 10km以上 12 58 999
26 17:20 西 10 10km以上 12 62 999
26 16:50 西 10 10km以上 12 62 999
26 16:20 西 11 10km以上 13 58 998
26 15:50 西 12 10km以上 13 58 998
26 15:20 西 11 10km以上 13 58 998
26 14:50 西 11 10km以上 13 62 997
26 14:20 西 11 10km以上 13 62 997
26 13:50 西 9 10km以上 13 62 997
26 13:20 西 10 10km以上 14 59 997
26 12:50 西 9 10km以上 14 59 996
26 12:20 西 9 10km以上 13 62 997
LOWW 280920Z 35005KT 9999 FEW005 SCT025 BKN027 10/09 Q1008 NOSIG
LOWW 280850Z 35006KT 9999 FEW003 SCT017 BKN025 10/09 Q1008 NOSIG
LOWW 280820Z 36006KT 9999 SCT003 SCT017 BKN022 10/09 Q1008 NOSIG
LOWW 280750Z 36007KT 9999 FEW003 SCT005 BKN015 09/09 Q1007 NOSIG
LOWW 280720Z 36006KT 8000 -SHRA FEW003 SCT013 BKN015 09/08 Q1007 BECMG NSW
LOWW 280650Z 36007KT 9999 SHRA FEW005 BKN015 09/08 Q1007 BECMG NSW
LOWW 280620Z 36008KT 9999 SHRA FEW005 BKN015 09/08 Q1007 TEMPO -SHRA
LOWW 280550Z 33006KT 310V020 6000 SHRA FEW005 BKN017 FEW020TCU 09/08 Q1007 TEMPO -SHRA
LOWW 280520Z 03007KT 360V060 8000 SHRA FEW011 SCT017 BKN021 09/08 Q1007 TEMPO -SHRA
LOWW 280450Z 02007KT 350V060 9999 -SHRA FEW005 SCT017 BKN022 09/08 Q1007 TEMPO SHRA
LOWW 280420Z 01011KT 9999 RA FEW006 SCT022 BKN030 09/08 Q1007 BECMG NSW
LOWW 280350Z 04009KT 010V070 9000 RA FEW009 SCT028 BKN034 09/08 Q1008 TEMPO -RA
LOWW 280320Z 05009KT 9999 RA FEW026 BKN032 BKN038 09/08 Q1008 TEMPO -RA
LOWW 280250Z 07006KT 040V100 8000 RA FEW020 SCT034 OVC050 09/08 Q1009 TEMPO +RA
LOWW 280220Z 06003KT 9999 RA FEW020 09/08 Q1009 NOSIG
LOWW 280150Z 05005KT 9999 -RA FEW050 10/08 Q1009 BECMG RA
LOWW 280120Z 04005KT 9999 -RA FEW050 10/08 Q1009 BECMG RA
LOWW 280050Z 05007KT 9999 -RA FEW046 10/07 Q1009 BECMG RA
LOWW 280020Z 05006KT CAVOK 10/08 Q1010 BECMG RA
LOWW 272350Z 04005KT 9999 FEW050 10/08 Q1010 NOSIG
LOWW 272320Z 05004KT 9999 FEW050 10/08 Q1010 NOSIG
LOWW 272250Z 08004KT CAVOK 10/07 Q1010 NOSIG
LOWW 272220Z 07005KT 9999 FEW050 10/07 Q1010 NOSIG
LOWW 272150Z 08004KT 9999 FEW050 10/07 Q1011 NOSIG
LOWW 272120Z 11004KT CAVOK 10/07 Q1011 NOSIG
LOWW 272050Z 09005KT CAVOK 10/07 Q1010 NOSIG
LOWW 272020Z 16007KT CAVOK 09/05 Q1011 NOSIG
LOWW 271950Z 16005KT CAVOK 11/06 Q1011 NOSIG
LOWW 271920Z 14003KT CAVOK 11/06 Q1011 NOSIG
LOWW 271850Z 18008KT CAVOK 12/07 Q1011 NOSIG
LOWW 271820Z 16010KT CAVOK 12/07 Q1010 NOSIG
LOWW 271750Z 16013KT CAVOK 13/07 Q1010 NOSIG
LOWW 271720Z 16011KT 9999 FEW040 12/06 Q1010 NOSIG
LOWW 271650Z 14008KT 9999 FEW040 13/06 Q1009 NOSIG
LOWW 271620Z 15010KT 9999 FEW040 14/06 Q1009 NOSIG
LOWW 271550Z 15012KT 9999 FEW040 16/07 Q1008 NOSIG
LOWW 271520Z 15015KT 9999 FEW040 16/06 Q1008 NOSIG
LOWW 271450Z 14013KT 9999 FEW040 17/07 Q1008 NOSIG
LOWW 271420Z 14011KT 100V160 9999 FEW040 17/07 Q1008 NOSIG
LOWW 271350Z 14008KT 100V160 9999 FEW040 17/07 Q1008 NOSIG
LOWW 271320Z 12008KT 080V160 9999 FEW040 17/06 Q1008 NOSIG
LOWW 271250Z 13007KT 080V170 9999 FEW040 17/06 Q1008 NOSIG
LOWW 271220Z 12007KT 080V170 9999 FEW040 16/06 Q1008 NOSIG
LOWW 271150Z 13008KT 9999 FEW040 16/05 Q1008 NOSIG
LOWW 271120Z 14009KT 110V170 9999 FEW040 16/05 Q1008 NOSIG
LOWW 271050Z 19006KT 160V220 9999 FEW040 15/03 Q1008 NOSIG
LOWW 271020Z 21006KT 160V280 9999 FEW040 15/04 Q1008 NOSIG
LOWW 270950Z 19005KT 130V270 9999 FEW036 14/05 Q1008 NOSIG
LOWW 270920Z 19006KT 140V240 9999 FEW036 14/05 Q1008 NOSIG
LOWW 270850Z 21006KT 170V250 9999 FEW036 13/03 Q1007 NOSIG
LOWW 270820Z 26007KT CAVOK 13/04 Q1007 NOSIG
LOWW 270750Z 28005KT 240V310 CAVOK 12/04 Q1007 NOSIG
LOWW 270720Z 26007KT CAVOK 11/04 Q1006 NOSIG
LOWW 270650Z 27006KT CAVOK 11/04 Q1006 NOSIG
LOWW 270620Z 24006KT 210V270 CAVOK 09/04 Q1006 NOSIG
LOWW 270550Z 19004KT 150V220 CAVOK 06/04 Q1005 NOSIG
LOWW 270520Z 17004KT CAVOK 05/03 Q1005 NOSIG
LOWW 270450Z 24003KT CAVOK 07/03 Q1005 NOSIG
LOWW 270420Z 21003KT CAVOK 06/03 Q1004 NOSIG
LOWW 270350Z VRB02KT CAVOK 07/03 Q1004 NOSIG
LOWW 270320Z 27004KT CAVOK 08/04 Q1004 NOSIG
LOWW 270250Z 26004KT CAVOK 09/04 Q1004 NOSIG
LOWW 270220Z 26007KT CAVOK 09/04 Q1004 NOSIG
LOWW 270150Z 29012KT CAVOK 09/04 Q1003 NOSIG
LOWW 270120Z 28010KT CAVOK 09/03 Q1003 NOSIG
LOWW 270050Z 28012KT CAVOK 09/03 Q1003 NOSIG
LOWW 270020Z 28009KT CAVOK 09/03 Q1003 NOSIG
LOWW 262350Z 28009KT CAVOK 09/03 Q1003 NOSIG
LOWW 262320Z 28009KT CAVOK 09/03 Q1002 NOSIG
LOWW 262250Z 28012KT CAVOK 09/03 Q1002 NOSIG
LOWW 262220Z 28010KT CAVOK 09/03 Q1002 NOSIG
LOWW 262150Z 28011KT CAVOK 09/03 Q1002 NOSIG
LOWW 262120Z 29014KT CAVOK 09/03 Q1002 NOSIG
LOWW 262050Z 29017KT CAVOK 09/03 Q1001 NOSIG
LOWW 262020Z 28016KT CAVOK 09/03 Q1001 NOSIG
LOWW 261950Z 29017KT CAVOK 09/03 Q1000 NOSIG
LOWW 261920Z 29017KT CAVOK 10/03 Q1001 NOSIG
LOWW 261850Z 28014KT CAVOK 10/03 Q1001 NOSIG
LOWW 261820Z 29013KT 9999 FEW035 10/04 Q1001 NOSIG
LOWW 261750Z 29013KT 9999 FEW035 10/04 Q1001 NOSIG
LOWW 261720Z 29014KT 9999 FEW035 10/04 Q1001 NOSIG
LOWW 261650Z 28014KT 9999 FEW035 11/04 Q1000 NOSIG
LOWW 261620Z 28017KT 9999 FEW035 11/04 Q1000 BECMG 27009KT
LOWW 261550Z 27019G31KT 9999 FEW035 12/04 Q0999 NOSIG
LOWW 261520Z 27019KT 9999 FEW035 12/05 Q0999 BECMG 27009KT
LOWW 261450Z 28019KT 9999 FEW035 12/05 Q0999 NOSIG
LOWW 261420Z 27021KT 9999 FEW035 13/05 Q0998 NOSIG
LOWW 261350Z 28024KT 9999 FEW035 SCT050 13/05 Q0998 NOSIG
LOWW 261320Z 27021KT 9999 FEW035 SCT050 13/05 Q0998 NOSIG
LOWW 261250Z 27021KT 9999 FEW030 SCT038 13/06 Q0997 NOSIG
LOWW 261220Z 27021KT 250V310 9999 FEW030 SCT038 13/06 Q0997 NOSIG
LOWW 261150Z 28017KT 9999 FEW030 13/06 Q0997 NOSIG
LOWW 261120Z 28019KT 9999 FEW030 14/06 Q0997 NOSIG
LOWW 261050Z 28017KT 9999 FEW030 14/06 Q0996 NOSIG
LOWW 261020Z 27017KT 9999 FEW025 13/06 Q0997 NOSIG